createdAt,value
2022-12-04T02:27:41.402Z,101574.00
2022-12-04T02:30:11.721Z,101572.03
2022-12-04T02:32:51.049Z,101580.78
2022-12-04T02:35:33.092Z,101572.50
2022-12-04T02:38:38.351Z,101580.22
2022-12-04T02:41:10.927Z,101577.13
2022-12-04T02:43:46.074Z,101572.63
2022-12-04T02:46:25.266Z,101573.69
2022-12-04T02:48:54.252Z,101573.03
2022-12-04T02:51:24.696Z,101575.84
2022-12-04T02:53:56.827Z,101570.28
2022-12-04T02:56:28.387Z,101585.81
2022-12-04T02:58:59.370Z,101579.31
2022-12-04T03:01:36.163Z,101578.69
2022-12-04T03:04:15.592Z,101581.69
2022-12-04T03:06:45.595Z,101577.72
2022-12-04T03:09:38.757Z,101583.63
2022-12-04T03:12:08.551Z,101575.53
2022-12-04T03:14:39.767Z,101582.50
2022-12-04T03:17:12.720Z,101577.63
2022-12-04T03:19:48.866Z,101581.75
2022-12-04T03:22:18.761Z,101574.22
2022-12-04T03:24:53.940Z,101577.00
2022-12-04T03:27:40.748Z,101573.75
2022-12-04T03:30:14.348Z,101579.91
2022-12-04T03:32:50.715Z,101584.94
2022-12-04T03:35:29.445Z,101578.78
2022-12-04T03:38:22.199Z,101587.38
2022-12-04T03:40:59.295Z,101581.63
2022-12-04T03:43:49.976Z,101580.06
2022-12-04T03:46:40.238Z,101586.03
2022-12-04T03:49:43.504Z,101593.97
2022-12-04T03:52:24.801Z,101585.00
2022-12-04T03:55:14.262Z,101590.75
2022-12-04T03:57:44.665Z,101589.84
2022-12-04T04:00:23.233Z,101589.53
2022-12-04T04:03:11.363Z,101597.75
2022-12-04T04:05:43.888Z,101588.38
2022-12-04T04:08:26.269Z,101599.53
2022-12-04T04:10:57.592Z,101597.34
2022-12-04T04:13:56.397Z,101606.72
2022-12-04T04:16:46.352Z,101597.94
2022-12-04T04:19:35.180Z,101589.69
2022-12-04T04:22:23.199Z,101601.66
2022-12-04T04:24:57.727Z,101600.59
2022-12-04T04:27:24.216Z,101605.19
2022-12-04T04:29:52.769Z,101610.59
2022-12-04T04:32:36.919Z,101601.31
2022-12-04T04:35:13.680Z,101609.19
2022-12-04T04:37:55.641Z,101602.69
2022-12-04T04:40:29.196Z,101599.16
2022-12-04T04:43:23.182Z,101600.59
2022-12-04T04:46:08.004Z,101598.81
2022-12-04T04:48:46.407Z,101597.34
2022-12-04T04:51:13.640Z,101606.34
2022-12-04T04:53:46.031Z,101591.94
2022-12-04T04:56:12.810Z,101595.91
2022-12-04T04:58:39.402Z,101590.16
2022-12-04T05:01:11.115Z,101589.06
2022-12-04T05:03:37.850Z,101600.53
2022-12-04T05:06:04.379Z,101594.63
2022-12-04T05:08:30.859Z,101604.09
2022-12-04T05:10:57.394Z,101591.78
2022-12-04T05:13:23.971Z,101598.97
2022-12-04T05:16:02.857Z,101599.16
2022-12-04T05:18:30.363Z,101593.00
2022-12-04T05:20:57.462Z,101588.88
2022-12-04T05:23:24.625Z,101583.22
2022-12-04T05:25:51.253Z,101602.53
2022-12-04T05:28:17.723Z,101598.81
2022-12-04T05:30:44.244Z,101600.91
2022-12-04T05:33:10.737Z,101600.19
2022-12-04T05:35:37.223Z,101609.81
2022-12-04T05:38:03.797Z,101604.25
2022-12-04T05:40:30.295Z,101611.91
2022-12-04T05:42:57.458Z,101612.25
2022-12-04T05:45:24.004Z,101612.59
2022-12-04T05:47:50.522Z,101617.75
2022-12-04T05:50:17.124Z,101625.84
2022-12-04T05:52:43.697Z,101617.34
2022-12-04T05:55:10.210Z,101618.81
2022-12-04T05:57:36.693Z,101624.38
2022-12-04T06:00:04.731Z,101627.06
2022-12-04T06:02:31.362Z,101625.34
2022-12-04T06:04:57.907Z,101627.16
2022-12-04T06:07:24.437Z,101623.34
2022-12-04T06:09:50.910Z,101631.16
2022-12-04T06:12:17.384Z,101616.47
2022-12-04T06:14:43.908Z,101618.81
2022-12-04T06:17:10.395Z,101625.84
2022-12-04T06:19:36.928Z,101627.16
2022-12-04T06:22:03.711Z,101628.44
2022-12-04T06:24:30.255Z,101622.69
2022-12-04T06:27:26.315Z,101633.94
2022-12-04T10:50:44.176Z,101587.09
2022-12-04T10:53:15.000Z,101583.38
2022-12-04T10:55:41.541Z,101581.94
2022-12-04T10:58:20.520Z,101582.34
2022-12-04T11:01:08.140Z,101577.97
2022-12-04T11:03:35.549Z,101570.44
2022-12-04T11:06:05.180Z,101563.25
2022-12-04T11:08:44.697Z,101566.47
2022-12-04T11:11:14.299Z,101569.13
2022-12-04T11:13:41.902Z,101568.25
2022-12-04T11:16:08.885Z,101573.00
2022-12-04T11:18:47.737Z,101576.72
2022-12-04T11:21:17.559Z,101564.19
2022-12-04T11:23:47.318Z,101565.56
2022-12-04T11:26:15.236Z,101569.28
2022-12-04T11:28:51.907Z,101561.69
2022-12-04T11:31:21.974Z,101570.03
2022-12-04T11:33:52.296Z,101562.09
2022-12-04T11:36:23.508Z,101571.38
2022-12-04T11:38:52.012Z,101560.66
2022-12-04T11:41:30.667Z,101550.03
2022-12-04T11:44:00.555Z,101560.25
2022-12-04T11:46:30.734Z,101555.38
2022-12-04T11:48:57.646Z,101546.47
2022-12-04T11:51:41.766Z,101547.38
2022-12-04T11:54:20.477Z,101552.94
2022-12-04T11:56:55.324Z,101549.00
2022-12-04T11:59:47.791Z,101552.25
2022-12-04T12:02:30.915Z,101538.66
2022-12-04T12:05:04.069Z,101554.84
2022-12-04T12:07:39.508Z,101556.13
2022-12-04T12:10:21.880Z,101553.78
2022-12-04T12:13:12.993Z,101550.84
2022-12-04T12:16:09.687Z,101562.19
2022-12-04T12:18:49.636Z,101555.53
2022-12-04T12:21:27.800Z,101560.41
2022-12-04T12:24:06.676Z,101564.41
2022-12-04T12:27:04.041Z,101562.91
2022-12-04T12:29:59.832Z,101558.78
2022-12-04T12:32:47.190Z,101554.16
2022-12-04T12:35:27.191Z,101553.03
2022-12-04T12:37:56.169Z,101553.16
2022-12-04T12:40:41.325Z,101541.34
2022-12-04T12:43:16.186Z,101547.19
2022-12-04T12:45:58.280Z,101543.72
2022-12-04T12:48:32.461Z,101549.53
2022-12-04T12:51:29.193Z,101543.28
2022-12-04T12:53:58.512Z,101545.97
2022-12-04T12:56:44.785Z,101551.88
2022-12-04T12:59:20.963Z,101540.22
2022-12-04T13:02:00.319Z,101544.81
2022-12-04T13:04:38.610Z,101541.38
2022-12-04T13:07:23.851Z,101544.75
2022-12-04T13:10:05.037Z,101545.56
2022-12-04T13:12:59.972Z,101545.56
2022-12-04T13:15:39.019Z,101545.22
2022-12-04T13:18:07.624Z,101542.47
2022-12-04T13:20:42.542Z,101540.63
2022-12-04T13:23:33.587Z,101541.47
2022-12-04T13:26:15.175Z,101540.59
2022-12-04T13:29:01.511Z,101535.50
2022-12-04T13:31:36.880Z,101537.72
2022-12-04T13:34:49.929Z,101540.38
2022-12-04T13:37:33.564Z,101540.19
2022-12-04T13:40:24.372Z,101546.31
2022-12-04T13:42:51.088Z,101547.88
2022-12-04T13:45:35.516Z,101545.78
2022-12-04T13:48:04.033Z,101537.84
2022-12-04T13:50:33.535Z,101555.38
2022-12-04T13:53:00.984Z,101550.75
2022-12-04T13:55:33.322Z,101553.03
2022-12-04T13:58:03.663Z,101559.25
2022-12-04T14:00:35.666Z,101541.06
2022-12-04T14:03:28.240Z,101546.66
2022-12-04T14:05:54.871Z,101542.78
2022-12-04T14:08:25.309Z,101551.03
2022-12-04T14:11:00.732Z,101542.84
2022-12-04T14:13:47.087Z,101536.59
2022-12-04T14:16:22.425Z,101534.13
2022-12-04T14:19:03.430Z,101537.03
2022-12-04T14:21:44.456Z,101537.25
2022-12-04T14:24:29.397Z,101545.31
2022-12-04T14:27:11.219Z,101548.34
2022-12-04T14:29:49.503Z,101537.84
2022-12-04T14:32:23.745Z,101550.69
2022-12-04T14:34:50.835Z,101543.97
2022-12-04T14:37:40.736Z,101552.53
2022-12-04T14:40:15.922Z,101550.38
2022-12-04T14:42:42.581Z,101552.34
2022-12-04T14:45:38.703Z,101547.97
2022-12-04T14:48:35.756Z,101552.06
2022-12-04T14:51:19.813Z,101542.59
2022-12-04T14:54:03.857Z,101541.88
2022-12-04T14:56:44.508Z,101539.09
2022-12-04T14:59:22.648Z,101536.25
2022-12-04T15:01:51.299Z,101533.00
2022-12-04T15:04:25.788Z,101537.28
2022-12-04T15:06:59.745Z,101528.72
2022-12-04T15:09:46.146Z,101540.69
2022-12-04T15:12:33.548Z,101530.69
2022-12-04T15:15:32.380Z,101528.75
2022-12-04T15:18:15.051Z,101528.91
2022-12-04T15:20:51.226Z,101531.59
2022-12-04T15:23:41.589Z,101531.41
2022-12-04T15:26:13.072Z,101530.16
2022-12-04T15:28:50.351Z,101524.13
2022-12-04T15:31:38.085Z,101526.63
2022-12-04T15:34:09.480Z,101531.09
2022-12-04T15:36:50.764Z,101522.69
2022-12-04T15:39:21.491Z,101520.94
2022-12-04T15:41:48.553Z,101520.06
2022-12-04T15:44:50.542Z,101520.94
2022-12-04T15:47:21.175Z,101511.97
2022-12-04T16:02:39.931Z,101503.47
2022-12-04T16:05:21.725Z,101502.81
2022-12-04T16:08:00.789Z,101493.59
2022-12-04T16:10:31.611Z,101504.09
2022-12-04T16:13:04.341Z,101504.25
2022-12-04T16:15:39.178Z,101501.59
2022-12-04T16:18:07.965Z,101501.94
2022-12-04T16:20:35.975Z,101494.97
2022-12-04T16:23:03.276Z,101498.69
2022-12-04T16:25:32.628Z,101499.25
2022-12-04T16:28:00.046Z,101502.63
2022-12-04T16:30:27.947Z,101505.16
2022-12-04T16:32:54.563Z,101501.06
2022-12-04T16:35:21.132Z,101498.56
2022-12-04T16:37:47.650Z,101506.44
2022-12-04T16:40:17.675Z,101505.34
2022-12-04T16:42:44.359Z,101500.72
2022-12-04T16:45:25.385Z,101497.84
2022-12-04T16:47:52.932Z,101508.56
2022-12-04T16:50:19.485Z,101498.22
2022-12-04T16:52:46.248Z,101500.16
2022-12-04T16:55:18.935Z,101499.63
2022-12-04T16:57:45.636Z,101499.47
2022-12-04T17:00:17.349Z,101496.47
2022-12-04T17:02:45.130Z,101496.47
2022-12-04T17:05:24.704Z,101500.38
2022-12-04T17:07:51.407Z,101499.50
2022-12-04T17:10:23.575Z,101500.88
2022-12-04T17:12:53.542Z,101508.59
2022-12-04T17:15:20.125Z,101512.34
2022-12-04T17:17:46.606Z,101514.47
2022-12-04T17:20:16.160Z,101511.25
2022-12-04T17:22:43.034Z,101506.81
2022-12-04T17:25:10.262Z,101501.84
2022-12-04T17:27:36.975Z,101499.88
2022-12-04T17:30:05.388Z,101493.78
2022-12-04T17:32:32.625Z,101499.72
2022-12-04T17:34:59.477Z,101499.16
2022-12-04T17:37:26.129Z,101499.34
2022-12-04T17:39:52.667Z,101494.00
2022-12-04T17:42:20.154Z,101503.66
2022-12-04T17:44:46.662Z,101506.88
2022-12-04T17:47:13.284Z,101508.63
2022-12-04T17:49:39.889Z,101500.09
2022-12-04T17:52:06.640Z,101506.34
2022-12-04T17:54:33.459Z,101505.09
2022-12-04T17:57:00.081Z,101504.38
2022-12-04T17:59:26.595Z,101505.63
2022-12-04T18:01:53.148Z,101511.16
2022-12-04T18:04:20.631Z,101509.41
2022-12-04T18:06:47.191Z,101505.13
2022-12-04T18:09:15.810Z,101516.00
2022-12-04T18:11:45.007Z,101504.06
2022-12-04T18:14:14.566Z,101517.63
2022-12-04T18:16:46.675Z,101516.22
2022-12-04T18:19:14.236Z,101511.22
2022-12-04T18:21:41.262Z,101510.66
2022-12-04T18:24:07.868Z,101504.09
2022-12-04T18:26:39.961Z,101503.34
2022-12-04T18:29:11.071Z,101514.75
2022-12-04T18:31:37.587Z,101508.00
2022-12-04T18:34:08.309Z,101514.75
2022-12-04T18:36:35.937Z,101525.84
2022-12-04T18:39:07.144Z,101521.38
2022-12-04T18:41:34.240Z,101524.06
2022-12-04T18:44:02.411Z,101535.84
2022-12-04T18:46:29.560Z,101544.06
2022-12-04T18:49:01.191Z,101544.75
2022-12-04T18:51:33.597Z,101544.41
2022-12-04T18:54:15.032Z,101547.81
2022-12-04T18:56:42.044Z,101543.69
2022-12-04T18:59:12.836Z,101544.75
2022-12-04T19:01:40.928Z,101549.41
2022-12-04T19:04:09.436Z,101543.19
2022-12-04T19:06:39.428Z,101547.28
2022-12-04T19:09:09.317Z,101549.75
2022-12-04T19:11:36.034Z,101550.09
2022-12-04T19:14:08.292Z,101550.47
2022-12-04T19:16:39.324Z,101549.06
2022-12-04T19:19:05.923Z,101545.84
2022-12-04T19:21:33.464Z,101553.53
2022-12-04T19:24:00.823Z,101550.47
2022-12-04T19:26:30.276Z,101543.34
2022-12-04T19:28:57.758Z,101542.97
2022-12-04T19:31:29.868Z,101537.28
2022-12-04T19:33:57.900Z,101539.59
2022-12-04T19:36:26.516Z,101538.34
2022-12-04T19:38:55.913Z,101536.94
2022-12-04T19:41:24.314Z,101533.72
2022-12-04T19:43:54.770Z,101532.84
2022-12-04T19:46:23.060Z,101535.16
2022-12-04T19:48:50.326Z,101529.81
2022-12-04T19:51:20.242Z,101536.94
2022-12-04T19:53:48.060Z,101529.81
2022-12-04T19:56:16.888Z,101526.59
2022-12-04T19:58:43.667Z,101534.81
2022-12-04T20:01:15.954Z,101529.97
2022-12-04T20:03:42.777Z,101535.53
2022-12-04T20:06:12.127Z,101532.66
2022-12-04T20:08:38.815Z,101529.97
2022-12-04T20:11:07.803Z,101528.19
2022-12-04T20:13:38.177Z,101542.66
2022-12-04T20:16:06.931Z,101534.28
2022-12-04T20:18:34.295Z,101533.03
2022-12-04T20:21:01.642Z,101538.03
2022-12-04T20:23:28.887Z,101544.44
2022-12-04T20:25:55.400Z,101544.94
2022-12-04T20:28:22.431Z,101547.66
2022-12-04T20:30:49.884Z,101552.28
2022-12-04T20:33:16.573Z,101551.03
2022-12-04T20:35:43.106Z,101553.69
2022-12-04T20:38:09.665Z,101555.13
2022-12-04T20:40:36.216Z,101553.00
2022-12-04T20:43:02.835Z,101547.66
2022-12-04T20:45:30.467Z,101556.19
2022-12-04T20:47:57.259Z,101557.28
2022-12-04T20:50:23.769Z,101559.75
2022-12-04T20:52:50.276Z,101561.53
2022-12-04T20:55:16.810Z,101559.56
2022-12-04T20:57:43.307Z,101569.03
2022-12-04T21:00:10.312Z,101579.38
2022-12-04T21:02:36.903Z,101572.25
2022-12-04T21:05:03.463Z,101575.81
2022-12-04T21:07:30.009Z,101567.78
2022-12-04T21:09:58.347Z,101565.66
2022-12-04T21:12:43.608Z,101565.84
2022-12-04T21:15:29.159Z,101560.13
2022-12-04T21:17:55.636Z,101560.84
2022-12-04T21:20:22.149Z,101556.19
2022-12-04T21:22:48.644Z,101558.00
2022-12-04T21:25:15.406Z,101557.28
2022-12-04T21:27:41.891Z,101562.44
2022-12-04T21:30:09.028Z,101557.63
2022-12-04T21:32:35.586Z,101565.13
2022-12-04T21:35:02.124Z,101559.97
2022-12-04T21:37:28.653Z,101555.84
2022-12-04T21:39:55.427Z,101553.34
2022-12-04T21:42:30.889Z,101549.25
2022-12-04T21:44:58.532Z,101544.97
2022-12-04T21:47:26.513Z,101541.75
2022-12-04T21:49:53.092Z,101541.94
2022-12-04T21:52:19.929Z,101536.78
2022-12-04T21:54:51.676Z,101545.50
2022-12-04T21:57:19.317Z,101538.53
2022-12-04T21:59:45.920Z,101540.50
2022-12-04T22:02:13.886Z,101538.19
2022-12-04T22:04:41.307Z,101530.53
2022-12-04T22:07:08.000Z,101539.44
